Time;durP1;ratioP1;P1;durP2;ratioP2;P2;SDS_P1;SDS_P2;PMS_P1;PMS_P2;Temp;Humidity;BMP_temperature;BMP_pressure;BME280_temperature;BME280_humidity;BME280_pressure;Samples;Min_cycle;Max_cycle;Signal;HPM_P1;HPM_P2
2021/03/20 00:01:51;;;;;;;9.70;3.80;;;1.10;83.50;;;;;;5053912;28;20070;-68
2021/03/20 00:04:18;;;;;;;11.57;3.00;;;1.10;83.30;;;;;;5052378;28;20032;-69
2021/03/20 00:06:48;;;;;;;6.82;2.55;;;1.10;83.30;;;;;;5052497;28;20033;-70
2021/03/20 00:09:18;;;;;;;7.63;2.28;;;1.10;83.00;;;;;;5055717;28;20032;-69
2021/03/20 00:11:47;;;;;;;7.47;3.80;;;1.10;83.00;;;;;;5074012;28;20029;-68
2021/03/20 00:14:15;;;;;;;8.88;2.97;;;1.10;83.00;;;;;;5057896;28;20062;-69
2021/03/20 00:16:41;;;;;;;5.55;2.55;;;1.20;82.70;;;;;;5073904;28;20121;-68
2021/03/20 00:19:06;;;;;;;6.80;2.70;;;1.10;82.60;;;;;;5054107;28;20082;-69
2021/03/20 00:21:33;;;;;;;7.63;2.80;;;1.20;82.40;;;;;;5052751;28;20045;-69
2021/03/20 00:23:58;;;;;;;8.43;3.42;;;1.20;82.40;;;;;;5041921;28;20033;-69
2021/03/20 00:26:24;;;;;;;7.50;3.38;;;1.10;82.30;;;;;;5053774;28;20023;-69
2021/03/20 00:28:51;;;;;;;7.65;4.15;;;1.20;82.70;;;;;;5052352;28;20456;-69
2021/03/20 00:31:17;;;;;;;5.05;2.47;;;1.20;82.70;;;;;;5052119;28;20032;-69
2021/03/20 00:33:44;;;;;;;7.20;2.78;;;1.20;83.20;;;;;;5053982;28;20018;-69
2021/03/20 00:36:10;;;;;;;6.43;2.33;;;1.30;83.00;;;;;;5047152;28;20096;-69
2021/03/20 00:38:37;;;;;;;5.53;2.72;;;1.30;82.80;;;;;;5037574;28;20029;-69
2021/03/20 00:41:03;;;;;;;11.88;2.45;;;1.30;82.50;;;;;;5080336;28;20539;-69
2021/03/20 00:43:28;;;;;;;11.88;3.80;;;1.30;82.30;;;;;;5066900;28;20032;-69
2021/03/20 00:45:54;;;;;;;10.52;2.90;;;1.40;82.20;;;;;;5033295;28;20378;-69
2021/03/20 00:48:27;;;;;;;7.53;3.25;;;1.30;81.80;;;;;;5032674;28;20025;-69
2021/03/20 00:50:53;;;;;;;8.18;3.42;;;1.30;81.80;;;;;;5058774;28;20021;-69
2021/03/20 00:53:19;;;;;;;7.03;3.17;;;1.30;81.90;;;;;;5051688;28;20020;-69
2021/03/20 00:55:45;;;;;;;8.68;3.45;;;1.30;82.20;;;;;;5057797;28;20087;-69
2021/03/20 00:58:27;;;;;;;7.53;3.20;;;1.30;82.00;;;;;;5032974;28;20480;-69
2021/03/20 01:00:56;;;;;;;8.65;3.38;;;1.30;82.00;;;;;;5032945;28;20033;-68
2021/03/20 01:03:22;;;;;;;6.97;3.08;;;1.30;81.90;;;;;;5037569;28;20505;-68
2021/03/20 01:05:48;;;;;;;10.00;2.80;;;1.30;81.50;;;;;;5033137;28;20030;-69
2021/03/20 01:08:14;;;;;;;10.68;3.47;;;1.30;81.60;;;;;;5033724;28;20084;-69
2021/03/20 01:10:40;;;;;;;7.90;3.13;;;1.30;81.60;;;;;;5052499;28;20024;-69
2021/03/20 01:13:06;;;;;;;5.40;2.88;;;1.30;81.60;;;;;;5050611;28;20478;-69
2021/03/20 01:15:32;;;;;;;8.18;3.03;;;1.40;81.50;;;;;;5069403;28;20028;-67
2021/03/20 01:17:58;;;;;;;8.88;3.38;;;1.40;81.30;;;;;;5070509;28;20025;-68
2021/03/20 01:20:23;;;;;;;7.72;2.90;;;1.50;81.30;;;;;;5051648;28;20040;-68
2021/03/20 01:22:48;;;;;;;9.32;3.65;;;1.50;81.20;;;;;;5052695;28;20100;-68
2021/03/20 01:25:15;;;;;;;10.82;3.47;;;1.50;81.10;;;;;;5065881;28;20491;-68
2021/03/20 01:27:40;;;;;;;11.23;3.70;;;1.50;81.20;;;;;;5072548;28;20028;-68
2021/03/20 01:30:18;;;;;;;10.98;3.47;;;1.50;81.00;;;;;;5066715;28;20111;-68
2021/03/20 01:32:44;;;;;;;12.30;3.88;;;1.50;81.10;;;;;;5072506;28;20042;-68
2021/03/20 01:35:10;;;;;;;8.40;2.88;;;1.50;81.00;;;;;;5067854;28;20021;-68
2021/03/20 01:37:36;;;;;;;8.82;4.18;;;1.50;80.90;;;;;;5072226;28;20042;-68
2021/03/20 01:40:04;;;;;;;7.35;2.97;;;1.50;81.00;;;;;;5061377;28;20484;-68
2021/03/20 01:42:29;;;;;;;6.95;2.95;;;1.40;80.90;;;;;;5039933;28;20025;-68
2021/03/20 01:45:15;;;;;;;6.70;2.92;;;1.50;80.80;;;;;;5045870;28;20082;-68
2021/03/20 01:47:50;;;;;;;5.22;2.30;;;1.50;80.80;;;;;;5052158;28;20025;-68
2021/03/20 01:50:26;;;;;;;5.22;1.98;;;1.40;80.80;;;;;;5064214;28;20036;-68
2021/03/20 01:52:59;;;;;;;3.78;1.67;;;1.40;80.70;;;;;;5069249;28;20085;-68
2021/03/20 01:55:27;;;;;;;10.13;2.53;;;1.40;80.50;;;;;;5067030;28;20107;-68
2021/03/20 01:58:03;;;;;;;5.38;1.85;;;1.40;80.70;;;;;;5068669;28;20045;-68
2021/03/20 02:00:37;;;;;;;3.55;2.13;;;1.40;80.80;;;;;;5032891;28;20045;-68
2021/03/20 02:03:08;;;;;;;6.28;2.00;;;1.40;81.00;;;;;;5050176;28;20116;-68
2021/03/20 02:05:34;;;;;;;7.38;2.58;;;1.40;81.00;;;;;;5067217;28;20550;-68
2021/03/20 02:08:02;;;;;;;9.02;3.47;;;1.40;81.10;;;;;;5053132;28;20021;-68
2021/03/20 02:10:32;;;;;;;8.57;2.67;;;1.50;81.10;;;;;;5062962;28;20031;-68
2021/03/20 02:13:25;;;;;;;6.75;3.10;;;1.50;81.00;;;;;;5054543;28;20036;-68
2021/03/20 02:15:58;;;;;;;4.80;2.08;;;1.60;80.90;;;;;;5026170;28;20090;-68
2021/03/20 02:18:42;;;;;;;6.43;2.53;;;1.60;80.50;;;;;;5049969;28;20102;-68
2021/03/20 02:21:27;;;;;;;5.50;2.10;;;1.60;80.60;;;;;;5031193;28;20124;-68
2021/03/20 02:24:30;;;;;;;7.40;3.00;;;1.60;80.60;;;;;;5031558;28;20109;-68
2021/03/20 02:27:10;;;;;;;9.77;2.05;;;1.60;80.80;;;;;;5039398;28;20032;-68
2021/03/20 02:29:56;;;;;;;5.90;2.10;;;1.70;80.60;;;;;;5050592;28;20036;-68
2021/03/20 02:32:36;;;;;;;5.80;2.47;;;1.70;80.40;;;;;;5040112;28;20478;-69
2021/03/20 02:35:33;;;;;;;7.32;2.35;;;1.70;80.30;;;;;;5058468;28;20036;-68
2021/03/20 02:38:28;;;;;;;6.50;2.28;;;1.70;80.20;;;;;;5040343;28;20029;-69
2021/03/20 02:41:04;;;;;;;3.70;2.15;;;1.70;79.70;;;;;;5051130;28;20029;-68
2021/03/20 02:43:33;;;;;;;5.72;2.40;;;1.70;79.90;;;;;;5049364;28;20064;-68
2021/03/20 02:46:19;;;;;;;10.23;3.40;;;1.70;80.00;;;;;;5065028;28;20065;-68
2021/03/20 02:48:49;;;;;;;6.50;2.47;;;1.70;80.10;;;;;;5050391;28;20021;-68
2021/03/20 02:51:48;;;;;;;8.23;2.55;;;1.70;80.00;;;;;;5046786;28;20033;-68
2021/03/20 02:54:25;;;;;;;5.88;2.30;;;1.80;80.00;;;;;;5064591;28;20520;-68
2021/03/20 02:57:14;;;;;;;5.32;2.50;;;1.80;79.90;;;;;;5054961;28;20029;-68
2021/03/20 02:59:45;;;;;;;4.85;1.90;;;1.80;79.60;;;;;;5049877;28;20465;-68
2021/03/20 03:02:13;;;;;;;5.20;1.92;;;1.80;79.60;;;;;;5055369;28;20063;-68
2021/03/20 03:05:07;;;;;;;6.38;2.40;;;1.80;79.60;;;;;;5037118;28;20432;-67
2021/03/20 03:07:39;;;;;;;7.07;2.17;;;1.80;80.20;;;;;;5055380;28;20029;-67
2021/03/20 03:10:15;;;;;;;5.05;1.90;;;1.80;79.80;;;;;;5053586;28;20079;-68
2021/03/20 03:12:49;;;;;;;5.28;2.22;;;1.80;79.70;;;;;;5053646;28;20120;-68
2021/03/20 03:15:20;;;;;;;4.05;1.95;;;1.80;79.50;;;;;;5055335;28;20028;-68
2021/03/20 03:17:52;;;;;;;3.92;2.00;;;1.80;79.40;;;;;;5054596;28;20029;-68
2021/03/20 03:20:27;;;;;;;5.13;2.15;;;1.90;79.30;;;;;;5069712;28;20120;-68
2021/03/20 03:23:09;;;;;;;6.30;2.53;;;1.90;79.40;;;;;;5074709;28;20024;-68
2021/03/20 03:25:38;;;;;;;7.32;3.03;;;1.90;79.50;;;;;;5056905;28;20082;-68
2021/03/20 03:28:07;;;;;;;5.22;2.05;;;1.80;79.30;;;;;;5054038;28;20033;-68
2021/03/20 03:30:34;;;;;;;7.07;2.63;;;1.90;79.30;;;;;;5066065;28;20115;-68
2021/03/20 03:33:09;;;;;;;9.02;2.30;;;1.80;79.20;;;;;;5061258;28;20036;-68
2021/03/20 03:35:38;;;;;;;7.28;2.40;;;1.90;79.10;;;;;;5048833;28;20055;-68
2021/03/20 03:38:37;;;;;;;8.00;2.03;;;1.90;78.90;;;;;;5054222;28;20029;-68
2021/03/20 03:41:23;;;;;;;8.27;2.53;;;1.90;79.00;;;;;;5068466;28;20041;-68
2021/03/20 03:43:50;;;;;;;4.50;1.65;;;1.90;79.00;;;;;;5053038;28;20040;-68
2021/03/20 03:46:23;;;;;;;3.92;2.17;;;1.90;78.90;;;;;;5054453;28;20386;-68
2021/03/20 03:48:58;;;;;;;6.38;2.47;;;1.90;79.00;;;;;;5052904;28;20033;-68
2021/03/20 03:51:25;;;;;;;5.13;1.83;;;1.90;79.20;;;;;;5054488;28;20064;-69
2021/03/20 03:53:52;;;;;;;3.97;1.75;;;1.90;79.20;;;;;;5052738;28;20033;-68
2021/03/20 03:56:42;;;;;;;4.50;1.95;;;1.90;79.00;;;;;;5054112;28;20040;-68
2021/03/20 03:59:15;;;;;;;4.18;1.60;;;1.90;79.10;;;;;;5049935;28;20045;-69
2021/03/20 04:01:51;;;;;;;2.10;1.42;;;1.90;78.90;;;;;;5034602;28;20068;-69
2021/03/20 04:04:41;;;;;;;4.72;1.83;;;1.90;78.90;;;;;;5076048;28;20036;-68
2021/03/20 04:07:20;;;;;;;4.72;1.92;;;1.90;78.70;;;;;;5067240;28;20218;-68
2021/03/20 04:10:06;;;;;;;4.28;1.90;;;2.00;78.80;;;;;;5053538;28;20035;-68
2021/03/20 04:12:57;;;;;;;4.45;1.95;;;1.90;78.50;;;;;;5055432;28;20488;-69
2021/03/20 04:15:48;;;;;;;6.47;2.05;;;2.00;78.70;;;;;;5064821;28;20044;-69
2021/03/20 04:18:43;;;;;;;3.00;1.60;;;1.90;78.30;;;;;;5041852;28;20033;-69
2021/03/20 04:21:32;;;;;;;3.90;1.75;;;1.90;78.30;;;;;;5052073;28;20041;-69
2021/03/20 04:24:14;;;;;;;4.60;1.83;;;1.90;78.40;;;;;;5052895;28;20069;-69
2021/03/20 04:26:47;;;;;;;3.67;1.42;;;1.90;78.60;;;;;;5053142;28;20048;-67
2021/03/20 04:29:33;;;;;;;3.17;1.73;;;1.90;78.70;;;;;;5052611;28;20037;-68
2021/03/20 04:32:03;;;;;;;4.93;1.80;;;1.90;78.70;;;;;;5052966;28;20033;-68
2021/03/20 04:34:57;;;;;;;5.32;2.05;;;1.90;78.70;;;;;;5056128;28;20035;-69
2021/03/20 04:37:32;;;;;;;4.03;1.80;;;1.90;78.60;;;;;;5033863;28;20063;-68
2021/03/20 04:39:58;;;;;;;;;;;2.00;78.60;;;;;;5041834;28;20021;-68
2021/03/20 04:42:28;;;;;;;5.50;2.45;;;2.00;78.80;;;;;;5051400;28;19917;-68
2021/03/20 04:44:54;;;;;;;4.82;2.17;;;2.10;78.60;;;;;;5055005;28;20025;-67
2021/03/20 04:47:25;;;;;;;5.53;1.80;;;2.10;78.50;;;;;;5053255;28;20029;-67
2021/03/20 04:49:58;;;;;;;5.50;2.20;;;2.10;78.40;;;;;;5051304;28;20022;-67
2021/03/20 04:52:28;;;;;;;5.68;2.25;;;2.00;78.40;;;;;;5053572;28;20048;-67
2021/03/20 04:54:53;;;;;;;4.97;2.10;;;2.10;78.10;;;;;;5054219;28;20099;-68
2021/03/20 04:57:37;;;;;;;3.75;2.00;;;2.10;77.80;;;;;;5032948;28;20041;-68
2021/03/20 05:00:09;;;;;;;4.95;2.45;;;2.00;77.40;;;;;;5038829;28;20033;-68
2021/03/20 05:03:05;;;;;;;2.88;1.63;;;2.10;77.20;;;;;;5033337;28;20033;-69
2021/03/20 05:05:38;;;;;;;3.47;1.83;;;2.10;77.20;;;;;;5046692;28;20065;-68
2021/03/20 05:08:09;;;;;;;3.38;2.10;;;2.10;77.30;;;;;;5053047;28;20033;-68
2021/03/20 05:10:55;;;;;;;3.97;2.17;;;2.00;77.10;;;;;;5050411;28;20033;-68
2021/03/20 05:13:35;;;;;;;6.53;2.03;;;2.10;77.30;;;;;;5051056;28;20496;-68
2021/03/20 05:16:39;;;;;;;2.85;1.52;;;2.10;77.20;;;;;;5051902;28;20033;-69
2021/03/20 05:19:05;;;;;;;5.97;1.85;;;2.10;77.30;;;;;;5050020;28;20148;-68
2021/03/20 05:21:38;;;;;;;4.68;1.52;;;2.20;77.60;;;;;;5050792;28;20048;-68
2021/03/20 05:24:04;;;;;;;4.60;2.25;;;2.20;77.50;;;;;;5050516;28;20420;-68
2021/03/20 05:26:32;;;;;;;5.75;1.75;;;2.20;77.60;;;;;;5052467;28;20036;-68
2021/03/20 05:28:58;;;;;;;5.38;2.10;;;2.20;77.40;;;;;;5049875;28;20563;-68
2021/03/20 05:31:25;;;;;;;5.55;1.83;;;2.30;77.60;;;;;;5052310;28;20363;-69
2021/03/20 05:33:51;;;;;;;5.45;1.88;;;2.30;77.10;;;;;;5050538;28;20029;-68
2021/03/20 05:36:18;;;;;;;3.55;1.95;;;2.30;77.10;;;;;;5070928;28;20496;-68
2021/03/20 05:38:45;;;;;;;4.50;1.90;;;2.40;77.10;;;;;;5051892;28;20036;-68
2021/03/20 05:41:35;;;;;;;5.18;1.85;;;2.30;76.50;;;;;;5051675;28;20052;-68
2021/03/20 05:44:36;;;;;;;3.53;1.92;;;2.30;76.70;;;;;;5053289;28;20109;-68
2021/03/20 05:47:21;;;;;;;4.72;1.65;;;2.40;76.60;;;;;;5049187;28;20029;-68
2021/03/20 05:50:08;;;;;;;2.72;1.67;;;2.40;76.30;;;;;;5043502;28;20110;-67
2021/03/20 05:52:55;;;;;;;3.38;1.80;;;2.40;76.20;;;;;;5051417;28;20033;-70
2021/03/20 05:55:56;;;;;;;3.65;1.67;;;2.40;75.70;;;;;;5062047;28;20402;-68
2021/03/20 05:58:35;;;;;;;4.28;1.80;;;2.30;75.60;;;;;;5051169;28;20183;-68
2021/03/20 06:01:28;;;;;;;4.20;1.73;;;2.30;76.00;;;;;;5034353;28;20377;-68
2021/03/20 06:04:18;;;;;;;5.97;1.95;;;2.40;76.10;;;;;;5031880;28;20034;-69
2021/03/20 06:07:18;;;;;;;3.30;1.40;;;2.40;75.70;;;;;;5038878;28;20379;-68
2021/03/20 06:10:06;;;;;;;4.03;1.77;;;2.40;75.70;;;;;;5037276;28;20044;-69
2021/03/20 06:12:51;;;;;;;5.28;2.33;;;2.50;75.90;;;;;;5051541;28;20350;-68
2021/03/20 06:15:50;;;;;;;7.00;2.20;;;2.60;76.10;;;;;;5057080;28;20029;-68
2021/03/20 06:18:43;;;;;;;6.95;2.35;;;2.70;76.20;;;;;;5031820;28;20087;-68
2021/03/20 06:21:43;;;;;;;5.40;2.05;;;2.80;76.20;;;;;;5063869;28;20436;-69
2021/03/20 06:24:40;;;;;;;3.20;2.20;;;2.90;75.90;;;;;;5046919;28;20391;-69
2021/03/20 06:27:10;;;;;;;4.07;1.98;;;3.00;75.90;;;;;;5049862;28;20033;-68
2021/03/20 06:29:41;;;;;;;4.45;2.10;;;3.00;76.10;;;;;;5056282;28;20465;-68
2021/03/20 06:32:19;;;;;;;4.50;1.77;;;3.10;75.70;;;;;;5051170;28;20037;-68
2021/03/20 06:35:10;;;;;;;3.38;2.03;;;3.10;75.60;;;;;;5050475;28;20493;-69
2021/03/20 06:37:39;;;;;;;4.70;2.00;;;3.20;74.80;;;;;;5067972;28;20056;-69
2021/03/20 06:40:15;;;;;;;4.18;1.90;;;3.30;74.80;;;;;;5065397;28;20568;-69
2021/03/20 06:42:43;;;;;;;4.55;2.10;;;3.30;74.50;;;;;;5051583;28;20117;-68
2021/03/20 06:45:19;;;;;;;4.05;2.10;;;3.30;73.70;;;;;;5049060;28;20513;-69
2021/03/20 06:47:54;;;;;;;5.15;1.90;;;3.40;74.10;;;;;;5051501;28;20029;-69
2021/03/20 06:50:33;;;;;;;5.95;2.40;;;3.40;74.00;;;;;;5054001;28;20544;-69
2021/03/20 06:53:07;;;;;;;8.32;2.35;;;3.50;73.20;;;;;;5050757;28;20022;-69
2021/03/20 06:55:45;;;;;;;4.10;1.90;;;3.50;72.90;;;;;;5049866;28;20547;-69
2021/03/20 06:58:21;;;;;;;5.18;2.28;;;3.50;73.10;;;;;;5050939;28;20417;-69
2021/03/20 07:00:47;;;;;;;5.57;2.10;;;3.50;73.00;;;;;;5049486;28;20040;-68
2021/03/20 07:04:04;;;;;;;6.00;2.03;;;3.60;73.00;;;;;;5050399;28;20033;-68
2021/03/20 07:06:39;;;;;;;;;;;3.60;72.90;;;;;;5002655;28;20049;-68
2021/03/20 07:09:07;;;;;;;5.68;2.00;;;3.70;73.60;;;;;;5050020;28;20019;-69
2021/03/20 07:11:40;;;;;;;3.78;2.28;;;3.70;72.80;;;;;;5056325;28;20116;-68
2021/03/20 07:14:12;;;;;;;5.07;1.90;;;3.70;72.30;;;;;;5061820;28;20095;-69
2021/03/20 07:16:55;;;;;;;3.50;1.80;;;3.80;71.90;;;;;;5064777;28;20037;-69
2021/03/20 07:19:21;;;;;;;6.30;2.38;;;3.90;71.80;;;;;;5048327;28;20547;-69
2021/03/20 07:22:05;;;;;;;4.20;1.92;;;3.90;71.70;;;;;;5050628;28;20033;-69
2021/03/20 07:24:40;;;;;;;4.45;2.10;;;4.00;70.30;;;;;;5053373;28;20056;-69
2021/03/20 07:27:15;;;;;;;4.45;1.70;;;4.00;70.00;;;;;;5061300;28;20025;-68
2021/03/20 07:29:43;;;;;;;5.22;1.88;;;3.90;68.20;;;;;;5049432;28;20112;-69
2021/03/20 07:32:14;;;;;;;5.47;2.08;;;3.90;69.50;;;;;;5050602;28;20043;-68
2021/03/20 07:34:40;;;;;;;3.53;1.90;;;3.90;69.30;;;;;;5054140;28;20446;-68
2021/03/20 07:37:18;;;;;;;4.57;2.15;;;3.90;69.80;;;;;;5050187;28;20029;-68
2021/03/20 07:39:57;;;;;;;6.35;1.98;;;3.90;69.50;;;;;;5043827;28;20083;-69
2021/03/20 07:42:36;;;;;;;6.30;2.00;;;4.00;69.70;;;;;;5029836;28;20037;-69
2021/03/20 07:45:21;;;;;;;4.85;2.03;;;4.20;69.80;;;;;;5037506;28;20045;-69
2021/03/20 07:48:25;;;;;;;6.63;2.70;;;4.30;69.60;;;;;;5051423;28;20052;-69
2021/03/20 07:51:12;;;;;;;5.70;2.95;;;4.40;69.20;;;;;;5046358;28;20041;-70
2021/03/20 07:53:41;;;;;;;6.10;2.60;;;4.50;69.30;;;;;;5053931;28;20025;-69
2021/03/20 07:56:13;;;;;;;3.88;1.80;;;4.50;68.40;;;;;;5037140;28;20041;-68
2021/03/20 07:58:46;;;;;;;5.80;2.00;;;4.60;67.70;;;;;;5039211;28;20048;-68
2021/03/20 08:01:20;;;;;;;3.65;1.75;;;4.60;67.40;;;;;;5072223;28;20045;-69
2021/03/20 08:03:58;;;;;;;5.85;1.90;;;4.70;66.90;;;;;;5064655;28;20021;-67
2021/03/20 08:06:27;;;;;;;3.75;1.70;;;4.80;66.00;;;;;;5052938;28;20035;-69
2021/03/20 08:09:17;;;;;;;4.50;1.65;;;4.90;66.10;;;;;;5052367;28;20032;-68
2021/03/20 08:11:45;;;;;;;4.80;1.95;;;5.00;65.10;;;;;;5054072;28;20033;-68
2021/03/20 08:14:36;;;;;;;4.65;1.63;;;5.00;64.30;;;;;;5052649;28;20074;-68
2021/03/20 08:17:01;;;;;;;3.35;1.50;;;5.10;63.40;;;;;;5043917;28;20116;-69
2021/03/20 08:19:30;;;;;;;1.98;1.25;;;5.20;63.00;;;;;;5042527;28;20154;-69
2021/03/20 08:22:21;;;;;;;5.38;2.20;;;5.20;60.60;;;;;;5055946;28;20040;-68
2021/03/20 08:24:49;;;;;;;4.20;1.70;;;5.20;60.70;;;;;;5041257;28;20024;-69
2021/03/20 08:27:40;;;;;;;4.72;1.80;;;5.10;60.00;;;;;;5051459;28;20538;-69
2021/03/20 08:30:27;;;;;;;3.90;1.50;;;5.30;60.30;;;;;;5042188;28;20033;-69
2021/03/20 08:33:22;;;;;;;3.42;1.77;;;5.40;60.70;;;;;;5046189;28;20037;-68
2021/03/20 08:36:12;;;;;;;3.25;1.63;;;5.50;60.90;;;;;;5057491;28;20025;-69
2021/03/20 08:38:57;;;;;;;2.97;1.77;;;5.60;58.40;;;;;;5073596;28;20047;-69
2021/03/20 08:41:29;;;;;;;3.33;1.60;;;5.70;57.70;;;;;;5058441;28;20047;-69
2021/03/20 08:44:17;;;;;;;8.60;1.80;;;5.80;57.80;;;;;;5069715;28;20109;-70
2021/03/20 08:47:23;;;;;;;3.28;1.45;;;5.80;58.00;;;;;;5053185;28;20033;-69
2021/03/20 08:50:26;;;;;;;1.90;1.20;;;6.00;58.10;;;;;;5025430;28;20037;-69
2021/03/20 08:53:00;;;;;;;2.63;1.33;;;6.10;57.10;;;;;;5052709;28;20029;-69
2021/03/20 08:56:00;;;;;;;5.90;2.00;;;6.20;56.20;;;;;;5054984;28;20082;-70
2021/03/20 08:58:41;;;;;;;5.10;1.63;;;6.30;55.20;;;;;;5052906;28;20049;-69
2021/03/20 09:01:18;;;;;;;4.90;2.03;;;6.30;53.30;;;;;;5051452;28;20044;-69
2021/03/20 09:03:49;;;;;;;2.72;1.67;;;6.30;55.10;;;;;;5047222;28;20041;-69
2021/03/20 09:06:51;;;;;;;3.00;1.40;;;6.40;55.70;;;;;;5067549;28;20028;-69
2021/03/20 09:09:46;;;;;;;5.25;1.98;;;6.40;54.70;;;;;;5051676;28;20076;-70
2021/03/20 09:12:34;;;;;;;4.60;1.90;;;6.50;52.90;;;;;;5044714;28;20072;-70
2021/03/20 09:15:03;;;;;;;3.50;1.70;;;6.50;53.30;;;;;;5062310;28;20063;-68
2021/03/20 09:17:35;;;;;;;4.63;1.73;;;6.50;52.80;;;;;;5043781;28;20045;-69
2021/03/20 09:20:10;;;;;;;6.05;1.95;;;6.50;52.90;;;;;;5046889;28;20029;-70
2021/03/20 09:22:41;;;;;;;;;;;6.60;50.40;;;;;;5052714;28;20037;-68
2021/03/20 09:25:23;;;;;;;3.05;1.70;;;6.50;52.30;;;;;;5051989;28;19916;-69
2021/03/20 09:28:13;;;;;;;4.65;1.83;;;6.50;51.70;;;;;;5052047;28;20044;-69
2021/03/20 09:30:48;;;;;;;4.45;1.92;;;6.60;52.10;;;;;;5053289;28;20028;-70
2021/03/20 09:33:26;;;;;;;4.10;1.98;;;6.80;52.70;;;;;;5039743;28;20068;-69
2021/03/20 09:36:02;;;;;;;3.85;1.70;;;6.90;52.60;;;;;;5057095;28;20058;-70
2021/03/20 09:38:34;;;;;;;5.47;2.28;;;7.00;52.50;;;;;;5060627;28;20083;-70
2021/03/20 09:41:14;;;;;;;3.45;2.40;;;7.10;51.10;;;;;;5058408;28;20067;-69
2021/03/20 09:43:55;;;;;;;3.40;1.58;;;7.10;50.80;;;;;;5046299;28;20056;-70
2021/03/20 09:46:36;;;;;;;3.47;1.70;;;7.00;48.90;;;;;;5056305;28;20025;-70
2021/03/20 09:49:07;;;;;;;2.58;1.45;;;7.00;50.10;;;;;;5051816;28;20028;-69
2021/03/20 09:51:52;;;;;;;7.03;1.70;;;7.10;50.90;;;;;;5036122;28;20029;-70
2021/03/20 09:54:31;;;;;;;3.63;1.42;;;7.30;50.60;;;;;;5033947;28;20082;-69
2021/03/20 09:57:06;;;;;;;3.60;1.73;;;7.30;49.90;;;;;;5049381;28;20115;-69
2021/03/20 09:59:33;;;;;;;5.32;2.63;;;7.40;49.80;;;;;;5050203;28;20064;-69
2021/03/20 10:02:04;;;;;;;3.78;1.70;;;7.40;48.80;;;;;;5050323;28;20059;-69
2021/03/20 10:04:51;;;;;;;3.25;1.60;;;7.40;48.50;;;;;;5049266;28;20041;-69
2021/03/20 10:07:16;;;;;;;3.38;1.42;;;7.40;48.50;;;;;;5050694;28;20095;-71
2021/03/20 10:10:06;;;;;;;3.13;1.60;;;7.40;48.00;;;;;;5053521;28;20024;-70
2021/03/20 10:13:14;;;;;;;3.45;1.60;;;7.30;47.90;;;;;;5051325;28;20094;-71
2021/03/20 10:15:56;;;;;;;3.30;1.60;;;7.40;48.40;;;;;;5045853;28;20033;-70
2021/03/20 10:18:53;;;;;;;2.28;1.30;;;7.50;48.40;;;;;;5050233;28;20117;-71
2021/03/20 10:21:24;;;;;;;2.33;1.50;;;7.60;46.30;;;;;;5058871;28;20037;-70
2021/03/20 10:24:04;;;;;;;3.47;1.63;;;7.40;45.50;;;;;;5050675;28;20036;-70
2021/03/20 10:26:51;;;;;;;4.72;1.80;;;7.40;46.60;;;;;;5050449;28;20020;-70
2021/03/20 10:29:16;;;;;;;5.45;2.05;;;7.30;45.90;;;;;;5052671;28;20029;-70
2021/03/20 10:31:45;;;;;;;4.95;1.98;;;7.20;46.30;;;;;;5050857;28;20021;-71
2021/03/20 10:34:15;;;;;;;4.05;2.08;;;7.20;45.30;;;;;;5051222;28;20045;-70
2021/03/20 10:36:44;;;;;;;4.25;2.40;;;7.20;46.70;;;;;;5080355;28;20028;-71
2021/03/20 10:39:26;;;;;;;3.45;1.77;;;7.20;46.50;;;;;;5050603;28;20036;-71
2021/03/20 10:42:12;;;;;;;4.45;1.80;;;7.30;46.70;;;;;;5050359;28;20048;-71
2021/03/20 10:44:41;;;;;;;6.38;2.03;;;7.40;47.10;;;;;;5055749;28;20071;-71
2021/03/20 10:47:30;;;;;;;5.13;1.85;;;7.40;45.40;;;;;;5054021;28;20431;-70
2021/03/20 10:50:05;;;;;;;5.53;2.25;;;7.30;45.50;;;;;;5058361;28;20036;-71
2021/03/20 10:52:35;;;;;;;2.47;1.65;;;7.30;45.30;;;;;;5050793;28;20033;-71
2021/03/20 10:55:11;;;;;;;4.03;1.75;;;7.20;44.50;;;;;;5052410;28;20031;-70
2021/03/20 10:57:37;;;;;;;2.22;1.20;;;7.20;45.50;;;;;;5050244;28;20385;-70
2021/03/20 11:00:36;;;;;;;3.30;1.60;;;7.30;45.70;;;;;;5049571;28;20036;-71
2021/03/20 11:03:14;;;;;;;3.33;1.80;;;7.40;45.80;;;;;;5050336;28;20140;-70
2021/03/20 11:05:42;;;;;;;3.55;1.42;;;7.50;45.70;;;;;;5059435;28;20098;-71
2021/03/20 11:08:25;;;;;;;3.75;1.65;;;7.50;45.50;;;;;;5062949;28;20029;-70
2021/03/20 11:11:07;;;;;;;4.88;1.65;;;7.60;46.10;;;;;;5061079;28;20031;-72
2021/03/20 11:13:38;;;;;;;3.22;1.42;;;7.70;45.70;;;;;;5049569;28;20481;-72
2021/03/20 11:16:20;;;;;;;2.28;1.30;;;7.70;44.10;;;;;;5041633;28;20041;-72
2021/03/20 11:18:50;;;;;;;3.13;1.52;;;7.70;45.20;;;;;;5035650;28;22343;-72
2021/03/20 11:21:20;;;;;;;3.20;1.40;;;7.70;44.80;;;;;;5049595;28;20037;-72
2021/03/20 11:23:54;;;;;;;2.45;1.40;;;7.70;45.00;;;;;;5048898;28;20029;-72
2021/03/20 11:26:23;;;;;;;2.45;1.40;;;7.80;45.50;;;;;;5053362;28;20040;-71
2021/03/20 11:28:51;;;;;;;3.70;1.70;;;7.80;45.10;;;;;;5051618;28;20462;-73
2021/03/20 11:31:18;;;;;;;3.03;1.50;;;7.90;45.40;;;;;;5073581;28;20028;-72
2021/03/20 11:33:44;;;;;;;3.60;1.90;;;8.00;44.90;;;;;;5053894;28;20393;-71
2021/03/20 11:36:17;;;;;;;5.90;2.00;;;8.00;44.30;;;;;;5071648;28;20067;-71
2021/03/20 11:38:43;;;;;;;2.70;1.60;;;8.10;45.00;;;;;;5083896;28;20048;-70
2021/03/20 11:41:12;;;;;;;3.13;1.70;;;8.10;44.70;;;;;;5053665;28;20080;-72
2021/03/20 11:43:44;;;;;;;4.00;2.33;;;8.20;44.80;;;;;;5053802;28;20056;-71
2021/03/20 11:46:13;;;;;;;3.83;1.98;;;8.20;44.90;;;;;;5071346;28;20036;-71
2021/03/20 11:48:42;;;;;;;6.82;3.00;;;8.30;44.70;;;;;;5069994;28;20036;-71
2021/03/20 11:51:14;;;;;;;13.30;6.28;;;8.30;44.70;;;;;;5052289;28;20043;-70
2021/03/20 11:53:46;;;;;;;22.80;9.52;;;8.40;43.80;;;;;;5065774;28;20111;-70
2021/03/20 11:56:21;;;;;;;13.75;6.03;;;8.50;44.20;;;;;;5040923;28;20044;-71
2021/03/20 11:59:00;;;;;;;4.00;2.17;;;8.50;44.00;;;;;;5071864;28;20064;-71
2021/03/20 12:01:31;;;;;;;14.73;5.88;;;8.60;43.90;;;;;;5052161;28;20599;-75
2021/03/20 12:04:00;;;;;;;5.95;2.60;;;8.50;42.90;;;;;;5051848;28;20025;-72
2021/03/20 12:06:30;;;;;;;5.47;2.67;;;8.40;42.90;;;;;;5071445;28;20339;-71
2021/03/20 12:08:59;;;;;;;6.88;2.53;;;8.40;43.00;;;;;;5063276;28;20067;-70
2021/03/20 12:11:53;;;;;;;4.32;2.03;;;8.40;43.20;;;;;;5034213;28;20446;-70
2021/03/20 12:14:38;;;;;;;9.02;4.05;;;8.50;43.20;;;;;;5034321;28;20394;-71
2021/03/20 12:17:10;;;;;;;7.22;3.00;;;8.60;43.40;;;;;;5049633;28;20124;-71
2021/03/20 12:19:58;;;;;;;6.43;3.45;;;8.60;43.40;;;;;;5055870;28;20350;-71
2021/03/20 12:22:31;;;;;;;4.43;1.80;;;8.70;42.80;;;;;;5065489;28;20106;-72
2021/03/20 12:25:16;;;;;;;3.90;2.10;;;8.80;42.80;;;;;;5058207;28;20434;-71
2021/03/20 12:27:42;;;;;;;3.88;2.00;;;8.70;42.10;;;;;;5061928;28;20029;-71
2021/03/20 12:30:29;;;;;;;4.65;1.90;;;8.70;40.80;;;;;;5051187;28;20442;-71
2021/03/20 12:33:13;;;;;;;5.07;2.20;;;8.50;41.90;;;;;;5051690;28;20044;-71
2021/03/20 12:35:48;;;;;;;4.22;1.85;;;8.60;42.80;;;;;;5052297;28;20512;-72
2021/03/20 12:38:20;;;;;;;2.72;1.90;;;8.60;42.80;;;;;;5040501;28;20382;-71
2021/03/20 12:40:48;;;;;;;2.88;1.80;;;8.60;42.60;;;;;;5048420;28;20547;-70
2021/03/20 12:43:22;;;;;;;6.30;2.00;;;8.80;42.70;;;;;;5052634;28;20035;-72
2021/03/20 12:45:48;;;;;;;3.80;1.92;;;8.80;42.60;;;;;;5051477;28;20501;-71
2021/03/20 12:48:15;;;;;;;3.38;1.85;;;8.90;42.70;;;;;;5063216;28;20120;-72
2021/03/20 12:50:40;;;;;;;6.15;2.10;;;9.00;41.90;;;;;;5063462;28;20469;-72
2021/03/20 12:53:06;;;;;;;6.70;1.83;;;9.00;42.50;;;;;;5051663;28;20025;-73
2021/03/20 12:55:32;;;;;;;3.88;1.70;;;9.00;42.40;;;;;;5053134;28;20473;-71
2021/03/20 12:57:59;;;;;;;2.83;1.70;;;9.10;42.30;;;;;;5051846;28;20056;-72
2021/03/20 13:00:24;;;;;;;3.67;1.88;;;9.10;42.40;;;;;;5060930;28;20013;-71
2021/03/20 13:02:50;;;;;;;4.45;1.80;;;9.20;41.40;;;;;;5064555;28;20029;-73
2021/03/20 13:05:26;;;;;;;3.40;1.75;;;9.00;41.00;;;;;;5049334;28;20061;-71
2021/03/20 13:07:53;;;;;;;3.95;1.40;;;9.00;41.50;;;;;;5058884;28;20025;-72
2021/03/20 13:10:19;;;;;;;5.38;1.92;;;9.10;41.80;;;;;;5060815;28;20052;-71
2021/03/20 13:12:45;;;;;;;5.43;1.80;;;9.20;41.60;;;;;;5063438;28;20079;-72
2021/03/20 13:15:11;;;;;;;2.88;1.60;;;9.20;41.70;;;;;;5060918;28;20028;-72
2021/03/20 13:17:36;;;;;;;4.68;1.90;;;9.20;41.50;;;;;;5062074;28;20385;-72
2021/03/20 13:20:04;;;;;;;2.60;1.55;;;9.20;41.30;;;;;;5048129;28;20037;-72
2021/03/20 13:22:29;;;;;;;3.35;1.75;;;9.20;41.60;;;;;;5037624;28;20039;-72
2021/03/20 13:24:55;;;;;;;3.40;1.63;;;9.20;41.70;;;;;;5044974;28;20378;-72
2021/03/20 13:27:20;;;;;;;3.85;1.67;;;9.10;41.60;;;;;;5048297;28;20092;-73
2021/03/20 13:29:46;;;;;;;2.20;1.42;;;9.20;41.60;;;;;;5056771;28;20020;-71
2021/03/20 13:32:11;;;;;;;2.80;1.60;;;9.10;41.40;;;;;;5056005;28;20043;-71
2021/03/20 13:34:37;;;;;;;3.53;1.77;;;9.20;42.00;;;;;;5056062;28;20063;-71
2021/03/20 13:37:02;;;;;;;3.88;1.52;;;9.10;41.20;;;;;;5053336;28;20025;-71
2021/03/20 13:39:28;;;;;;;4.22;1.50;;;9.10;41.80;;;;;;5054747;28;20507;-71
2021/03/20 13:41:53;;;;;;;3.22;1.90;;;9.00;41.00;;;;;;5057381;28;20649;-71
2021/03/20 13:44:19;;;;;;;3.83;1.65;;;8.90;41.10;;;;;;5057604;28;20029;-71